logo
Search for airport 
image banner adimage banner adimage banner ad
image banner ad

YCAX - Carrara

Located in Benowa, Australia

ICAO - , IATA -

Data provided by Airmate  

General information

Coordinates: S28°0'0" E153°22'0"
Elevation is 7 feet MSL.
Magnetic variation is 11° East
View others Airports in Queensland

Operational data

Special qualification required
Current time UTC:
Current local time:
Weather at : YBCG - Gold Coast ( 23 km )
METAR: YBCG 032100Z AUTO 18006KT 9999 // BKN078 BKN089 24/22 Q1015
TAF: TAF YBCG 032007Z 0321/0418 17006KT 9999 -SHRA SCT020 FM040000 15012KT 9999 -SHRA SCT020 BKN030 FM040200 14015G25KT 9999 -SHRA FEW020 BKN030 FM040700 15012KT 9999 -SHRA SCT020 BKN030 FM041600 20008KT 9999 -SHRA SCT015 BKN030 INTER 0323/0418 4000 SHRA BKN010 PROB30 TEMPO 0402/0408 VRB20G35KT 1000 TSRA BKN008 SCT035CB
View NOTAMs / SUP AIP / TFR affecting this airport [VIEW]
Communications frequencies: [VIEW]

Runways:

Airport contact information

Address: Benowa Australia

Satellite view of YCAX